createdAt,value
2018-09-20T18:18:37.613Z,19.70
2018-09-20T18:21:05.832Z,19.70
2018-09-20T18:23:34.151Z,19.80
2018-09-20T18:26:02.391Z,19.80
2018-09-20T18:28:30.774Z,19.80
2018-09-20T18:30:59.110Z,19.90
2018-09-20T18:33:27.406Z,20.00
2018-09-20T18:35:55.759Z,20.00
2018-09-20T18:38:24.002Z,20.10
2018-09-20T18:40:52.238Z,20.10
2018-09-20T18:43:20.530Z,20.10
2018-09-20T18:45:48.874Z,20.20
2018-09-20T18:48:17.133Z,20.30
2018-09-20T18:50:45.433Z,20.30
2018-09-20T18:53:13.673Z,20.20
2018-09-20T18:55:42.023Z,20.30
2018-09-20T18:58:10.361Z,20.30
2018-09-20T19:00:38.704Z,20.30
2018-09-20T19:03:07.086Z,20.30
2018-09-20T19:05:35.371Z,20.20
2018-09-20T19:08:03.659Z,20.10
2018-09-20T19:10:31.897Z,20.10
2018-09-20T19:13:00.361Z,20.10
2018-09-20T19:15:28.631Z,20.00
2018-09-20T19:17:57.101Z,20.00
2018-09-20T19:20:25.419Z,19.90
2018-09-20T19:22:53.712Z,19.80
2018-09-20T19:25:21.980Z,19.80
2018-09-20T19:27:50.252Z,19.80
2018-09-20T19:30:18.550Z,19.80
2018-09-20T19:32:46.874Z,19.70
2018-09-20T19:35:15.083Z,19.70
2018-09-20T19:37:43.438Z,19.70
2018-09-20T19:40:11.746Z,19.70
2018-09-20T19:42:40.013Z,19.70
2018-09-20T19:45:08.391Z,19.70
2018-09-20T19:47:36.767Z,19.70
2018-09-20T19:50:05.712Z,19.60
2018-09-20T19:52:34.166Z,19.60
2018-09-20T19:55:02.611Z,19.50
2018-09-20T19:57:30.828Z,19.50
2018-09-20T19:59:59.186Z,19.40
2018-09-20T20:02:27.587Z,19.40
2018-09-20T20:04:55.909Z,19.50
2018-09-20T20:07:24.224Z,19.40
2018-09-20T20:09:52.565Z,19.50
2018-09-20T20:12:20.917Z,19.50
2018-09-20T20:14:49.263Z,19.40
2018-09-20T20:17:19.643Z,19.50
2018-09-20T20:19:48.157Z,19.50
2018-09-20T20:22:16.367Z,19.30
2018-09-20T20:24:44.843Z,19.40
2018-09-20T20:27:13.133Z,19.30
2018-09-20T20:29:41.425Z,19.30
2018-09-20T20:32:09.716Z,19.30
2018-09-20T20:34:37.994Z,19.20
2018-09-20T20:37:06.685Z,19.10
2018-09-20T20:39:34.901Z,19.20
2018-09-20T20:42:03.166Z,19.20
2018-09-20T20:44:31.537Z,19.20
2018-09-20T20:46:59.915Z,19.20
2018-09-20T20:49:28.161Z,19.10
2018-09-20T20:51:56.465Z,19.10
2018-09-20T20:54:25.385Z,19.10
2018-09-20T20:56:53.722Z,19.10
2018-09-20T20:59:22.538Z,19.00
2018-09-20T21:01:51.699Z,18.90
2018-09-20T21:04:20.582Z,19.00
2018-09-20T21:06:48.971Z,19.00
2018-09-20T21:09:18.090Z,18.90
2018-09-20T21:11:46.422Z,18.90
2018-09-20T21:14:14.710Z,18.90
2018-09-20T21:16:43.050Z,19.00
2018-09-20T21:19:11.605Z,18.90
2018-09-20T21:21:39.939Z,18.90
2018-09-20T21:24:08.269Z,19.00
2018-09-20T21:26:36.831Z,19.00
2018-09-20T21:29:05.885Z,19.00
2018-09-20T21:31:34.187Z,19.00
2018-09-20T21:34:02.815Z,19.00
2018-09-20T21:36:31.690Z,18.90
2018-09-20T21:38:59.915Z,18.90
2018-09-20T21:41:28.186Z,18.90
2018-09-20T21:43:56.496Z,18.80
2018-09-20T21:46:24.856Z,18.80
2018-09-20T21:48:53.359Z,18.80
2018-09-20T21:51:21.830Z,18.80
2018-09-20T21:53:50.171Z,18.90
2018-09-20T21:56:18.418Z,18.80
2018-09-20T21:58:46.953Z,18.80
2018-09-20T22:01:15.195Z,18.70
2018-09-20T22:03:43.450Z,18.70
2018-09-20T22:06:11.729Z,18.70
